Time;durP1;ratioP1;P1;durP2;ratioP2;P2;SDS_P1;SDS_P2;PMS_P1;PMS_P2;Temp;Humidity;BMP_temperature;BMP_pressure;BME280_temperature;BME280_humidity;BME280_pressure;Samples;Min_cycle;Max_cycle;Signal;HPM_P1;HPM_P2
2024/01/15 00:00:41;;;;;;;16.58;12.10;;;;;;;;;;5005550;28;20033;-72
2024/01/15 00:03:06;;;;;;;16.88;12.40;;;;;;;;;;5011103;28;20048;-72
2024/01/15 00:05:31;;;;;;;17.52;12.40;;;;;;;;;;5008780;28;20055;-72
2024/01/15 00:07:56;;;;;;;17.15;12.35;;;;;;;;;;5026533;28;20092;-70
2024/01/15 00:10:22;;;;;;;16.33;12.32;;;;;;;;;;5022454;28;20032;-71
2024/01/15 00:12:48;;;;;;;15.93;11.82;;;;;;;;;;5022463;28;20151;-71
2024/01/15 00:15:13;;;;;;;15.45;11.90;;;;;;;;;;5026985;28;20067;-70
2024/01/15 00:17:38;;;;;;;16.40;12.00;;;;;;;;;;5019790;28;20042;-71
2024/01/15 00:20:04;;;;;;;16.25;12.30;;;;;;;;;;5020348;28;20036;-71
2024/01/15 00:22:30;;;;;;;16.90;12.77;;;;;;;;;;5025869;28;20574;-71
2024/01/15 00:24:56;;;;;;;16.30;11.88;;;;;;;;;;5000126;28;20043;-72
2024/01/15 00:27:21;;;;;;;16.13;12.15;;;;;;;;;;5020092;28;20041;-71
2024/01/15 00:29:46;;;;;;;15.38;12.18;;;;;;;;;;5017208;28;20037;-72
2024/01/15 00:32:12;;;;;;;16.05;12.10;;;;;;;;;;5025885;28;20040;-71
2024/01/15 00:34:37;;;;;;;16.65;12.57;;;;;;;;;;5023452;28;20857;-71
2024/01/15 00:37:03;;;;;;;16.23;12.50;;;;;;;;;;5009223;28;20078;-71
2024/01/15 00:39:28;;;;;;;15.90;11.80;;;;;;;;;;5021654;28;20040;-71
2024/01/15 00:41:54;;;;;;;16.77;11.68;;;;;;;;;;5005608;28;20040;-71
2024/01/15 00:44:19;;;;;;;17.75;12.52;;;;;;;;;;5009742;28;20037;-71
2024/01/15 00:46:45;;;;;;;16.73;13.00;;;;;;;;;;5019339;28;20558;-72
2024/01/15 00:49:11;;;;;;;16.33;12.57;;;;;;;;;;5021896;28;20069;-71
2024/01/15 00:51:36;;;;;;;16.70;11.98;;;;;;;;;;5019055;28;20037;-72
2024/01/15 00:54:02;;;;;;;16.05;11.93;;;;;;;;;;5000980;28;20060;-71
2024/01/15 00:56:27;;;;;;;13.98;10.90;;;;;;;;;;5018232;28;20037;-71
2024/01/15 00:58:52;;;;;;;15.35;11.60;;;;;;;;;;5003996;28;20047;-72
2024/01/15 01:01:18;;;;;;;16.23;11.88;;;;;;;;;;5001401;28;20143;-71
2024/01/15 01:03:43;;;;;;;14.90;11.68;;;;;;;;;;5005144;28;20467;-69
2024/01/15 01:06:09;;;;;;;16.48;11.55;;;;;;;;;;5028725;28;20127;-71
2024/01/15 01:08:53;;;;;;;14.32;11.20;;;;;;;;;;5051714;28;20084;-71
2024/01/15 01:11:18;;;;;;;15.90;11.57;;;;;;;;;;5042284;28;20545;-70
2024/01/15 01:13:43;;;;;;;16.10;11.80;;;;;;;;;;5034117;28;20045;-72
2024/01/15 01:16:08;;;;;;;16.67;12.07;;;;;;;;;;5021222;28;20040;-71
2024/01/15 01:18:34;;;;;;;16.27;11.90;;;;;;;;;;5035014;28;20041;-72
2024/01/15 01:21:00;;;;;;;15.68;11.30;;;;;;;;;;5030139;28;20037;-72
2024/01/15 01:23:25;;;;;;;15.13;12.02;;;;;;;;;;5025390;28;20041;-72
2024/01/15 01:25:51;;;;;;;15.65;11.82;;;;;;;;;;5026564;28;20055;-71
2024/01/15 01:28:16;;;;;;;15.02;11.75;;;;;;;;;;5009636;28;20045;-71
2024/01/15 01:30:42;;;;;;;16.10;11.80;;;;;;;;;;5026718;28;20059;-71
2024/01/15 01:33:07;;;;;;;14.98;11.40;;;;;;;;;;5025845;28;20531;-71
2024/01/15 01:35:32;;;;;;;13.98;10.90;;;;;;;;;;5024860;28;20036;-71
2024/01/15 01:37:58;;;;;;;15.68;11.73;;;;;;;;;;5011249;28;20104;-71
2024/01/15 01:40:23;;;;;;;15.85;11.30;;;;;;;;;;5008853;28;20064;-71
2024/01/15 01:42:48;;;;;;;15.60;11.30;;;;;;;;;;5026701;28;20037;-71
2024/01/15 01:45:14;;;;;;;18.27;12.35;;;;;;;;;;5028325;28;20144;-71
2024/01/15 01:47:40;;;;;;;16.25;12.10;;;;;;;;;;5007933;28;20041;-70
2024/01/15 01:50:05;;;;;;;14.07;11.02;;;;;;;;;;5027465;28;20051;-72
2024/01/15 01:52:32;;;;;;;14.75;11.25;;;;;;;;;;5024357;28;20511;-71
2024/01/15 01:54:57;;;;;;;14.35;11.23;;;;;;;;;;5027341;28;20164;-72
2024/01/15 01:57:22;;;;;;;13.75;11.02;;;;;;;;;;5027133;28;20098;-72
2024/01/15 01:59:48;;;;;;;15.50;11.57;;;;;;;;;;5010982;28;20554;-71
2024/01/15 02:02:13;;;;;;;15.05;11.48;;;;;;;;;;5026051;28;20519;-71
2024/01/15 02:04:38;;;;;;;15.40;11.48;;;;;;;;;;5017455;28;20111;-71
2024/01/15 02:07:04;;;;;;;16.63;11.88;;;;;;;;;;5007379;28;20127;-71
2024/01/15 02:09:29;;;;;;;16.25;11.43;;;;;;;;;;5025499;28;20709;-71
2024/01/15 02:11:54;;;;;;;14.57;11.57;;;;;;;;;;5028370;28;20084;-72
2024/01/15 02:14:20;;;;;;;14.10;11.15;;;;;;;;;;5013958;28;20733;-71
2024/01/15 02:16:45;;;;;;;16.10;11.30;;;;;;;;;;5029573;28;20185;-70
2024/01/15 02:19:17;;;;;;;15.25;11.65;;;;;;;;;;5007617;28;20672;-71
2024/01/15 02:21:44;;;;;;;13.88;10.57;;;;;;;;;;5011970;28;20051;-70
2024/01/15 02:24:09;;;;;;;14.52;11.18;;;;;;;;;;5008902;28;20455;-68
2024/01/15 02:26:35;;;;;;;15.75;11.18;;;;;;;;;;5009241;28;20046;-71
2024/01/15 02:29:01;;;;;;;16.10;11.07;;;;;;;;;;5006898;28;20137;-71
2024/01/15 02:31:26;;;;;;;14.48;11.45;;;;;;;;;;5013127;28;20125;-70
2024/01/15 02:33:51;;;;;;;15.85;11.60;;;;;;;;;;5027256;28;20183;-71
2024/01/15 02:36:17;;;;;;;14.25;10.90;;;;;;;;;;5029550;28;20036;-71
2024/01/15 02:38:42;;;;;;;15.20;10.85;;;;;;;;;;5017168;28;21613;-71
2024/01/15 02:41:08;;;;;;;14.20;11.25;;;;;;;;;;5031810;28;20132;-71
2024/01/15 02:43:33;;;;;;;15.70;11.30;;;;;;;;;;5030226;28;20056;-72
2024/01/15 02:45:58;;;;;;;15.50;11.40;;;;;;;;;;5033133;28;20051;-73
2024/01/15 02:48:24;;;;;;;14.20;11.20;;;;;;;;;;5033067;28;20115;-72
2024/01/15 02:50:49;;;;;;;16.05;10.95;;;;;;;;;;5019238;28;20473;-72
2024/01/15 02:53:14;;;;;;;15.38;11.52;;;;;;;;;;5020812;28;20720;-72
2024/01/15 02:55:40;;;;;;;14.43;10.85;;;;;;;;;;5036949;28;20037;-72
2024/01/15 02:58:05;;;;;;;14.57;11.30;;;;;;;;;;5027247;28;20126;-71
2024/01/15 03:00:30;;;;;;;15.48;11.40;;;;;;;;;;5028483;28;20061;-72
2024/01/15 03:02:56;;;;;;;13.98;11.07;;;;;;;;;;5040511;28;20124;-71
2024/01/15 03:05:23;;;;;;;16.05;11.38;;;;;;;;;;5034949;28;20099;-72
2024/01/15 03:07:49;;;;;;;14.45;10.88;;;;;;;;;;5033399;28;20487;-69
2024/01/15 03:10:14;;;;;;;14.00;10.65;;;;;;;;;;5042801;28;20078;-71
2024/01/15 03:12:40;;;;;;;13.82;10.85;;;;;;;;;;5026800;28;20422;-71
2024/01/15 03:15:05;;;;;;;16.27;11.38;;;;;;;;;;5047008;28;20108;-72
2024/01/15 03:17:31;;;;;;;13.80;10.38;;;;;;;;;;5029616;28;20506;-72
2024/01/15 03:19:56;;;;;;;14.75;10.95;;;;;;;;;;5050297;28;20097;-71
2024/01/15 03:22:21;;;;;;;15.35;11.05;;;;;;;;;;5015279;28;20091;-71
2024/01/15 03:24:48;;;;;;;15.07;10.98;;;;;;;;;;5037499;28;20333;-71
2024/01/15 03:27:13;;;;;;;13.35;10.93;;;;;;;;;;5029458;28;20037;-71
2024/01/15 03:29:39;;;;;;;14.48;10.95;;;;;;;;;;5037093;28;20079;-71
2024/01/15 03:32:04;;;;;;;15.45;11.27;;;;;;;;;;5037588;28;20033;-71
2024/01/15 03:34:30;;;;;;;15.13;10.65;;;;;;;;;;5026343;28;20133;-72
2024/01/15 03:37:01;;;;;;;13.52;11.00;;;;;;;;;;5037988;28;20033;-71
2024/01/15 03:39:26;;;;;;;14.73;10.55;;;;;;;;;;5021399;28;20041;-71
2024/01/15 03:41:53;;;;;;;15.00;10.55;;;;;;;;;;5031981;28;20041;-70
2024/01/15 03:44:19;;;;;;;14.68;10.40;;;;;;;;;;5054254;28;20552;-70
2024/01/15 03:46:44;;;;;;;13.82;10.38;;;;;;;;;;5033948;28;20037;-70
2024/01/15 03:49:10;;;;;;;13.70;10.35;;;;;;;;;;5034908;28;20091;-73
2024/01/15 03:51:35;;;;;;;13.85;10.85;;;;;;;;;;5045705;28;20039;-72
2024/01/15 03:54:00;;;;;;;13.30;10.38;;;;;;;;;;5041964;28;20047;-71
2024/01/15 03:56:26;;;;;;;13.82;10.48;;;;;;;;;;5024013;28;20043;-72
2024/01/15 03:58:51;;;;;;;14.50;10.65;;;;;;;;;;5028238;28;20580;-71
2024/01/15 04:01:16;;;;;;;14.13;10.90;;;;;;;;;;5004715;28;20525;-72
2024/01/15 04:03:42;;;;;;;12.82;10.13;;;;;;;;;;5004082;28;20053;-70
2024/01/15 04:06:07;;;;;;;14.18;9.82;;;;;;;;;;5027711;28;20110;-72
2024/01/15 04:08:32;;;;;;;13.68;10.00;;;;;;;;;;5024535;28;20079;-72
2024/01/15 04:10:59;;;;;;;13.95;10.38;;;;;;;;;;5008669;28;20739;-72
2024/01/15 04:13:24;;;;;;;13.15;10.15;;;;;;;;;;5008350;28;20041;-72
2024/01/15 04:15:49;;;;;;;13.85;10.20;;;;;;;;;;5021930;28;20028;-71
2024/01/15 04:18:15;;;;;;;13.43;9.98;;;;;;;;;;5024843;28;20116;-71
2024/01/15 04:20:41;;;;;;;14.43;10.07;;;;;;;;;;5018018;28;20021;-71
2024/01/15 04:23:06;;;;;;;13.45;9.82;;;;;;;;;;5021801;28;20060;-71
2024/01/15 04:25:31;;;;;;;13.30;9.93;;;;;;;;;;5009913;28;20427;-72
2024/01/15 04:27:57;;;;;;;11.57;9.48;;;;;;;;;;5005505;28;20094;-72
2024/01/15 04:30:22;;;;;;;12.80;9.70;;;;;;;;;;5004286;28;20105;-71
2024/01/15 04:32:47;;;;;;;13.50;10.23;;;;;;;;;;5028303;28;21294;-71
2024/01/15 04:35:13;;;;;;;13.30;10.55;;;;;;;;;;5005906;28;20036;-71
2024/01/15 04:37:39;;;;;;;13.10;9.55;;;;;;;;;;5010710;28;20032;-72
2024/01/15 04:40:05;;;;;;;13.73;9.82;;;;;;;;;;5006134;28;20036;-71
2024/01/15 04:42:30;;;;;;;13.43;9.40;;;;;;;;;;5027361;28;20055;-71
2024/01/15 04:44:55;;;;;;;12.18;9.77;;;;;;;;;;4993852;28;20131;-71
2024/01/15 04:47:21;;;;;;;12.45;9.30;;;;;;;;;;5009429;28;20748;-71
2024/01/15 04:49:46;;;;;;;12.48;10.07;;;;;;;;;;5006551;28;20094;-70
2024/01/15 04:52:12;;;;;;;14.00;9.68;;;;;;;;;;5007643;28;20020;-71
2024/01/15 04:54:37;;;;;;;11.88;9.15;;;;;;;;;;5027184;28;21129;-70
2024/01/15 04:57:03;;;;;;;13.00;10.15;;;;;;;;;;5028477;28;20594;-71
2024/01/15 04:59:28;;;;;;;13.43;9.77;;;;;;;;;;5023220;28;20031;-71
2024/01/15 05:01:54;;;;;;;13.32;9.55;;;;;;;;;;4991246;28;20110;-72
2024/01/15 05:04:20;;;;;;;13.35;10.20;;;;;;;;;;5025565;28;20466;-70
2024/01/15 05:06:45;;;;;;;12.27;9.52;;;;;;;;;;5005226;28;20031;-70
2024/01/15 05:09:10;;;;;;;13.15;9.95;;;;;;;;;;5026521;28;20130;-71
2024/01/15 05:11:35;;;;;;;14.23;9.73;;;;;;;;;;5027221;28;20025;-71
2024/01/15 05:14:01;;;;;;;12.63;9.65;;;;;;;;;;5015263;28;20106;-71
2024/01/15 05:16:26;;;;;;;11.82;9.20;;;;;;;;;;5006606;28;20029;-71
2024/01/15 05:18:52;;;;;;;13.20;10.20;;;;;;;;;;5006526;28;20056;-71
2024/01/15 05:21:17;;;;;;;13.02;9.63;;;;;;;;;;5028132;28;21001;-71
2024/01/15 05:23:42;;;;;;;13.07;9.77;;;;;;;;;;5005079;28;20031;-71
2024/01/15 05:26:08;;;;;;;12.85;10.13;;;;;;;;;;5029315;28;20032;-71
2024/01/15 05:28:34;;;;;;;12.85;9.35;;;;;;;;;;5031060;28;20039;-70
2024/01/15 05:30:59;;;;;;;13.80;10.05;;;;;;;;;;5029965;28;20017;-70
2024/01/15 05:33:25;;;;;;;13.23;9.90;;;;;;;;;;5030925;28;20890;-71
2024/01/15 05:35:50;;;;;;;14.07;10.40;;;;;;;;;;5007218;28;20020;-71
2024/01/15 05:38:16;;;;;;;14.35;10.18;;;;;;;;;;5028911;28;20032;-71
2024/01/15 05:40:41;;;;;;;12.68;9.60;;;;;;;;;;5028317;28;20055;-71
2024/01/15 05:43:06;;;;;;;13.65;10.10;;;;;;;;;;5007564;28;20020;-70
2024/01/15 05:45:32;;;;;;;13.77;10.15;;;;;;;;;;5026564;28;20072;-71
2024/01/15 05:47:57;;;;;;;12.73;10.18;;;;;;;;;;5019395;28;20315;-72
2024/01/15 05:50:22;;;;;;;15.38;10.48;;;;;;;;;;5027608;28;20048;-72
2024/01/15 05:52:48;;;;;;;13.00;9.50;;;;;;;;;;5005067;28;20039;-71
2024/01/15 05:55:13;;;;;;;13.75;9.90;;;;;;;;;;5019804;28;20126;-72
2024/01/15 05:57:38;;;;;;;13.95;10.18;;;;;;;;;;5009659;28;20099;-72
2024/01/15 06:00:04;;;;;;;13.30;10.07;;;;;;;;;;5018701;28;20052;-72
2024/01/15 06:02:30;;;;;;;14.38;10.23;;;;;;;;;;5022399;28;20037;-73
2024/01/15 06:04:55;;;;;;;14.52;10.38;;;;;;;;;;5025964;28;20037;-72
2024/01/15 06:07:20;;;;;;;14.48;10.80;;;;;;;;;;5022477;28;20052;-71
2024/01/15 06:09:45;;;;;;;13.23;10.20;;;;;;;;;;5027550;28;20044;-72
2024/01/15 06:12:12;;;;;;;15.27;11.38;;;;;;;;;;5012193;28;21289;-77
2024/01/15 06:14:37;;;;;;;13.40;10.13;;;;;;;;;;5013470;28;20052;-74
2024/01/15 06:17:03;;;;;;;15.38;10.50;;;;;;;;;;5048514;28;20120;-73
2024/01/15 06:19:28;;;;;;;13.32;10.02;;;;;;;;;;5032303;28;20120;-73
2024/01/15 06:21:53;;;;;;;12.88;10.00;;;;;;;;;;5019160;28;20040;-72
2024/01/15 06:24:20;;;;;;;12.85;10.00;;;;;;;;;;5024318;28;20048;-73
2024/01/15 06:26:46;;;;;;;12.98;10.20;;;;;;;;;;5028839;28;20160;-72
2024/01/15 06:29:11;;;;;;;14.57;10.35;;;;;;;;;;5030203;28;20087;-74
2024/01/15 06:31:37;;;;;;;14.80;11.05;;;;;;;;;;5024190;28;20817;-73
2024/01/15 06:34:02;;;;;;;15.90;11.43;;;;;;;;;;5021805;28;20080;-72
2024/01/15 06:36:27;;;;;;;15.85;11.30;;;;;;;;;;5006441;28;20340;-72
2024/01/15 06:38:53;;;;;;;14.77;10.77;;;;;;;;;;5025856;28;20041;-71
2024/01/15 06:41:18;;;;;;;14.25;10.82;;;;;;;;;;5032952;28;20048;-74
2024/01/15 06:43:44;;;;;;;15.20;11.10;;;;;;;;;;4996177;28;20277;-73
2024/01/15 06:46:09;;;;;;;13.68;10.88;;;;;;;;;;5032814;28;20048;-73
2024/01/15 06:48:35;;;;;;;14.68;11.38;;;;;;;;;;5018705;28;21555;-73
2024/01/15 06:51:00;;;;;;;13.55;10.90;;;;;;;;;;5016182;28;20048;-74
2024/01/15 06:53:26;;;;;;;23.92;16.45;;;;;;;;;;5027262;28;21667;-74
2024/01/15 06:55:51;;;;;;;17.08;12.27;;;;;;;;;;5000702;28;20528;-72
2024/01/15 06:58:16;;;;;;;17.88;12.40;;;;;;;;;;5036617;28;20125;-72
2024/01/15 07:00:42;;;;;;;16.75;11.88;;;;;;;;;;5040575;28;20067;-72
2024/01/15 07:03:07;;;;;;;17.05;12.07;;;;;;;;;;5004049;28;20064;-72
2024/01/15 07:05:32;;;;;;;15.63;11.32;;;;;;;;;;5044950;28;20037;-75
2024/01/15 07:07:59;;;;;;;15.35;11.38;;;;;;;;;;5067991;28;20028;-72
2024/01/15 07:10:26;;;;;;;20.67;12.23;;;;;;;;;;5079227;28;20233;-74
2024/01/15 07:12:53;;;;;;;20.98;12.65;;;;;;;;;;5044957;28;20040;-73
2024/01/15 07:15:18;;;;;;;20.02;12.55;;;;;;;;;;5062509;28;20047;-70
2024/01/15 07:17:43;;;;;;;24.58;13.35;;;;;;;;;;5064162;28;20056;-72
2024/01/15 07:20:09;;;;;;;21.42;12.75;;;;;;;;;;5063692;28;20105;-73
2024/01/15 07:22:37;;;;;;;23.05;12.48;;;;;;;;;;5065616;28;20109;-72
2024/01/15 07:25:04;;;;;;;22.70;12.70;;;;;;;;;;5064918;28;20212;-73
2024/01/15 07:27:33;;;;;;;19.90;12.10;;;;;;;;;;5068750;28;20168;-74
2024/01/15 07:29:58;;;;;;;24.17;12.63;;;;;;;;;;5069245;28;20060;-74
2024/01/15 07:32:24;;;;;;;21.20;12.43;;;;;;;;;;5068161;28;20123;-73
2024/01/15 07:34:49;;;;;;;22.40;12.10;;;;;;;;;;5066435;28;20155;-74
2024/01/15 07:37:15;;;;;;;20.35;11.75;;;;;;;;;;5065024;28;20021;-75
2024/01/15 07:39:40;;;;;;;18.55;11.77;;;;;;;;;;5063435;28;20048;-75
2024/01/15 07:42:05;;;;;;;20.40;11.65;;;;;;;;;;5046669;28;20037;-74
2024/01/15 07:44:31;;;;;;;22.77;12.45;;;;;;;;;;5058408;28;20104;-74
2024/01/15 07:46:56;;;;;;;18.75;11.77;;;;;;;;;;5060672;28;20502;-74
2024/01/15 07:49:23;;;;;;;19.58;12.75;;;;;;;;;;5059960;28;20128;-74
2024/01/15 07:51:48;;;;;;;22.58;12.70;;;;;;;;;;5063549;28;20584;-73
2024/01/15 07:54:14;;;;;;;19.50;12.13;;;;;;;;;;5066615;28;20037;-72
2024/01/15 07:56:59;;;;;;;20.27;11.35;;;;;;;;;;5064848;28;20097;-72
2024/01/15 07:59:24;;;;;;;19.20;11.73;;;;;;;;;;5061679;28;20040;-71
2024/01/15 08:01:50;;;;;;;17.00;11.88;;;;;;;;;;5059162;28;20170;-69
2024/01/15 08:04:15;;;;;;;23.35;12.82;;;;;;;;;;5056209;28;20067;-69
2024/01/15 08:06:40;;;;;;;19.23;11.73;;;;;;;;;;5058872;28;20036;-69
2024/01/15 08:09:06;;;;;;;18.67;12.05;;;;;;;;;;5042327;28;20048;-69
2024/01/15 08:11:31;;;;;;;22.00;13.10;;;;;;;;;;5058988;28;20051;-69
2024/01/15 08:13:57;;;;;;;20.55;12.52;;;;;;;;;;5065178;28;20040;-69
2024/01/15 08:16:24;;;;;;;22.58;12.85;;;;;;;;;;5066773;28;20044;-69
2024/01/15 08:18:49;;;;;;;22.10;13.70;;;;;;;;;;5058734;28;20464;-69
2024/01/15 08:21:14;;;;;;;21.23;13.27;;;;;;;;;;5063414;28;20041;-69
2024/01/15 08:23:40;;;;;;;20.83;12.68;;;;;;;;;;5061667;28;20032;-69
2024/01/15 08:26:05;;;;;;;23.08;12.77;;;;;;;;;;5026648;28;20097;-69
2024/01/15 08:28:31;;;;;;;23.38;12.93;;;;;;;;;;5066036;28;20519;-69
2024/01/15 08:30:56;;;;;;;22.00;12.85;;;;;;;;;;5047430;28;20067;-69
2024/01/15 08:33:21;;;;;;;21.15;13.48;;;;;;;;;;5063921;28;20033;-69
2024/01/15 08:35:47;;;;;;;22.75;13.68;;;;;;;;;;5069198;28;20094;-69
2024/01/15 08:38:12;;;;;;;21.25;13.32;;;;;;;;;;5047117;28;20554;-69
2024/01/15 08:40:38;;;;;;;21.70;13.90;;;;;;;;;;5067480;28;20126;-69
2024/01/15 08:43:06;;;;;;;21.88;13.77;;;;;;;;;;5051454;28;20033;-70
2024/01/15 08:45:31;;;;;;;23.27;13.80;;;;;;;;;;5063317;28;20036;-69
2024/01/15 08:47:57;;;;;;;22.38;14.13;;;;;;;;;;5064111;28;20257;-69
2024/01/15 08:50:27;;;;;;;20.88;14.10;;;;;;;;;;5066160;28;20135;-69
2024/01/15 08:52:53;;;;;;;26.90;14.77;;;;;;;;;;5063996;28;20573;-69
2024/01/15 08:55:18;;;;;;;23.52;14.55;;;;;;;;;;5067939;28;20040;-69
2024/01/15 08:57:43;;;;;;;24.48;14.38;;;;;;;;;;5077364;28;20040;-70
2024/01/15 09:00:09;;;;;;;24.40;14.02;;;;;;;;;;5074644;28;20044;-69
2024/01/15 09:02:35;;;;;;;23.48;13.82;;;;;;;;;;5060388;28;20032;-68
2024/01/15 09:05:01;;;;;;;24.20;14.35;;;;;;;;;;5066571;28;20029;-68
2024/01/15 09:07:26;;;;;;;19.88;13.50;;;;;;;;;;5047320;28;20059;-69
2024/01/15 09:09:52;;;;;;;22.35;14.38;;;;;;;;;;5062278;28;20048;-68
2024/01/15 09:12:18;;;;;;;22.38;14.52;;;;;;;;;;5060171;28;20036;-68
2024/01/15 09:14:44;;;;;;;24.58;14.38;;;;;;;;;;5057423;28;20219;-68
2024/01/15 09:17:09;;;;;;;21.88;14.18;;;;;;;;;;5060607;28;20089;-69
2024/01/15 09:19:34;;;;;;;22.05;14.40;;;;;;;;;;5067732;28;20036;-72
2024/01/15 09:22:00;;;;;;;24.00;14.23;;;;;;;;;;5069432;28;20035;-71
2024/01/15 09:24:25;;;;;;;22.70;14.38;;;;;;;;;;5045664;28;20037;-72
2024/01/15 09:26:51;;;;;;;21.35;14.40;;;;;;;;;;5062129;28;20032;-69
2024/01/15 09:29:16;;;;;;;21.13;14.23;;;;;;;;;;5067375;28;20056;-69
2024/01/15 09:31:42;;;;;;;21.25;14.68;;;;;;;;;;5069792;28;20487;-69
2024/01/15 09:34:07;;;;;;;24.23;14.88;;;;;;;;;;5029625;28;20036;-68
2024/01/15 09:36:32;;;;;;;23.05;14.63;;;;;;;;;;5051097;28;20674;-69
2024/01/15 09:38:57;;;;;;;21.75;14.63;;;;;;;;;;5050332;28;20117;-68
2024/01/15 09:41:23;;;;;;;23.20;14.60;;;;;;;;;;5063101;28;20033;-69
2024/01/15 09:43:48;;;;;;;20.38;14.68;;;;;;;;;;5044753;28;20403;-68
2024/01/15 09:46:15;;;;;;;22.27;14.23;;;;;;;;;;5072071;28;20110;-69
2024/01/15 09:48:40;;;;;;;24.77;15.10;;;;;;;;;;5067836;28;20048;-68
2024/01/15 09:51:06;;;;;;;21.65;15.10;;;;;;;;;;5061954;28;20056;-69
2024/01/15 09:53:31;;;;;;;20.13;14.65;;;;;;;;;;5057920;28;20032;-69
2024/01/15 09:55:58;;;;;;;21.58;14.13;;;;;;;;;;5055260;28;20606;-68
2024/01/15 09:58:24;;;;;;;22.60;14.55;;;;;;;;;;5061700;28;20052;-67
2024/01/15 10:00:50;;;;;;;19.75;13.98;;;;;;;;;;5072655;28;20054;-69
2024/01/15 10:03:15;;;;;;;20.70;14.70;;;;;;;;;;5043677;28;20164;-69
2024/01/15 10:05:40;;;;;;;20.65;14.18;;;;;;;;;;5070029;28;20075;-68
2024/01/15 10:08:06;;;;;;;20.48;14.05;;;;;;;;;;5062740;28;20056;-67
2024/01/15 10:10:31;;;;;;;23.05;15.85;;;;;;;;;;5047036;28;20096;-68
2024/01/15 10:12:57;;;;;;;19.88;14.15;;;;;;;;;;5065738;28;20571;-68
2024/01/15 10:15:23;;;;;;;19.52;14.20;;;;;;;;;;5061783;28;20068;-72
2024/01/15 10:17:49;;;;;;;24.33;17.00;;;;;;;;;;5050376;28;20049;-70
2024/01/15 10:20:14;;;;;;;20.17;15.60;;;;;;;;;;5065976;28;20036;-71
2024/01/15 10:22:41;;;;;;;20.10;14.80;;;;;;;;;;5045146;28;20468;-70
2024/01/15 10:25:10;;;;;;;19.02;15.05;;;;;;;;;;5066485;28;21411;-71
2024/01/15 10:27:35;;;;;;;21.30;14.93;;;;;;;;;;5068304;28;20025;-73
2024/01/15 10:30:03;;;;;;;22.90;14.93;;;;;;;;;;5073548;28;20133;-71
2024/01/15 10:32:29;;;;;;;20.40;14.57;;;;;;;;;;5034173;28;20574;-71
2024/01/15 10:34:54;;;;;;;18.25;14.57;;;;;;;;;;5070310;28;20103;-71
2024/01/15 10:37:20;;;;;;;20.45;15.20;;;;;;;;;;5068403;28;20036;-71
2024/01/15 10:39:48;;;;;;;21.23;15.70;;;;;;;;;;5053311;28;20052;-72
2024/01/15 10:42:14;;;;;;;24.65;18.08;;;;;;;;;;5053528;28;20044;-73
2024/01/15 10:44:43;;;;;;;21.42;16.92;;;;;;;;;;5069756;28;20047;-73
2024/01/15 10:47:08;;;;;;;22.55;16.95;;;;;;;;;;5070415;28;20037;-72
2024/01/15 10:49:34;;;;;;;21.08;15.60;;;;;;;;;;5074734;28;20055;-72
2024/01/15 10:52:00;;;;;;;21.48;16.55;;;;;;;;;;5069649;28;20031;-72
2024/01/15 10:54:25;;;;;;;21.33;15.90;;;;;;;;;;5070243;28;20036;-72
2024/01/15 10:56:51;;;;;;;21.05;15.50;;;;;;;;;;5052805;28;20113;-72
2024/01/15 10:59:16;;;;;;;21.08;15.82;;;;;;;;;;5067266;28;20094;-71
2024/01/15 11:01:54;;;;;;;21.67;16.60;;;;;;;;;;5078324;28;20036;-72
2024/01/15 11:04:20;;;;;;;19.88;15.25;;;;;;;;;;5064905;28;20029;-73
2024/01/15 11:06:47;;;;;;;19.65;15.73;;;;;;;;;;5043887;28;20024;-72
2024/01/15 11:09:15;;;;;;;21.77;16.33;;;;;;;;;;5068757;28;20075;-72
2024/01/15 11:11:47;;;;;;;21.65;14.55;;;;;;;;;;5070565;28;20015;-73
2024/01/15 11:16:56;;;;;;;20.27;15.27;;;;;;;;;;2324324;22;20057;-70
2024/01/15 11:19:21;;;;;;;23.13;14.85;;;;;;;;;;5029419;28;20041;-69
2024/01/15 11:21:46;;;;;;;20.17;14.70;;;;;;;;;;5020185;28;20117;-73
2024/01/15 11:24:12;;;;;;;21.00;15.80;;;;;;;;;;5024622;28;20129;-75
2024/01/15 11:26:40;;;;;;;19.40;14.70;;;;;;;;;;5013934;28;20128;-75
2024/01/15 11:29:06;;;;;;;18.73;14.18;;;;;;;;;;5027025;28;20037;-76
2024/01/15 11:31:38;;;;;;;19.25;13.60;;;;;;;;;;5020895;28;20083;-77
2024/01/15 11:34:03;;;;;;;20.25;14.57;;;;;;;;;;5019319;28;20029;-74
2024/01/15 11:36:48;;;;;;;19.13;14.18;;;;;;;;;;5200523;22;20064;-58
2024/01/15 11:39:35;;;;;;;19.88;15.02;;;;;;;;;;5022490;28;20128;-59
2024/01/15 11:42:01;;;;;;;19.02;13.68;;;;;;;;;;5028546;28;20099;-59
2024/01/15 11:44:26;;;;;;;19.27;14.07;;;;;;;;;;5030478;28;20827;-59
2024/01/15 11:47:04;;;;;;;19.02;14.55;;;;;;;;;;5031945;28;20048;-60
2024/01/15 11:49:45;;;;;;;18.58;13.68;;;;;;;;;;5028633;28;20110;-60
2024/01/15 11:52:11;;;;;;;23.00;16.27;;;;;;;;;;5029109;28;20120;-58
2024/01/15 11:54:37;;;;;;;19.10;14.88;;;;;;;;;;5028696;28;20137;-57
2024/01/15 11:57:03;;;;;;;20.10;14.43;;;;;;;;;;5024035;28;20037;-58
2024/01/15 11:59:31;;;;;;;17.90;13.95;;;;;;;;;;5021005;28;20057;-57
2024/01/15 12:02:00;;;;;;;16.23;13.35;;;;;;;;;;5027263;28;20087;-58
2024/01/15 12:04:26;;;;;;;18.80;14.30;;;;;;;;;;5026138;28;20475;-57
2024/01/15 12:06:52;;;;;;;18.52;14.20;;;;;;;;;;5012166;28;20475;-58
2024/01/15 12:09:19;;;;;;;20.15;14.23;;;;;;;;;;4999741;28;20046;-57
2024/01/15 12:11:45;;;;;;;17.70;13.25;;;;;;;;;;5029161;28;20067;-56
2024/01/15 12:14:10;;;;;;;20.95;14.93;;;;;;;;;;5024881;28;20051;-58
2024/01/15 12:16:35;;;;;;;16.83;13.55;;;;;;;;;;5026148;28;20802;-59
2024/01/15 12:19:01;;;;;;;17.58;13.77;;;;;;;;;;5023808;28;20440;-61
2024/01/15 12:21:26;;;;;;;19.20;14.30;;;;;;;;;;5027446;28;20036;-60
2024/01/15 12:23:54;;;;;;;18.15;13.95;;;;;;;;;;5032048;28;20103;-58
2024/01/15 12:26:20;;;;;;;18.65;14.30;;;;;;;;;;5027360;28;20064;-59
2024/01/15 12:28:45;;;;;;;18.25;14.25;;;;;;;;;;5026063;28;20876;-57
2024/01/15 12:31:10;;;;;;;18.77;14.38;;;;;;;;;;5030300;28;20044;-58
2024/01/15 12:33:36;;;;;;;17.23;14.13;;;;;;;;;;5029185;28;20037;-59
2024/01/15 12:36:04;;;;;;;17.42;13.77;;;;;;;;;;5028016;28;20525;-59
2024/01/15 12:38:31;;;;;;;18.17;14.23;;;;;;;;;;5026349;28;20034;-58
2024/01/15 12:40:57;;;;;;;17.45;13.98;;;;;;;;;;5029649;28;20144;-58
2024/01/15 12:43:25;;;;;;;20.15;14.63;;;;;;;;;;5029042;28;20052;-58
2024/01/15 12:45:51;;;;;;;17.83;14.45;;;;;;;;;;5030928;28;20017;-58
2024/01/15 12:48:17;;;;;;;18.65;13.80;;;;;;;;;;5026107;28;20040;-62
2024/01/15 12:50:47;;;;;;;19.60;14.40;;;;;;;;;;5029115;28;20413;-60
2024/01/15 12:53:12;;;;;;;19.25;14.25;;;;;;;;;;5022039;28;20024;-61
2024/01/15 12:55:38;;;;;;;16.73;13.98;;;;;;;;;;5029470;28;20023;-61
2024/01/15 12:58:09;;;;;;;17.83;13.63;;;;;;;;;;5027618;28;20024;-59
2024/01/15 13:00:34;;;;;;;17.52;14.48;;;;;;;;;;5027787;28;20033;-61
2024/01/15 13:03:01;;;;;;;18.58;14.48;;;;;;;;;;5033306;28;20099;-59
2024/01/15 13:05:27;;;;;;;17.42;13.85;;;;;;;;;;5029873;28;20057;-60
2024/01/15 13:07:52;;;;;;;17.92;13.68;;;;;;;;;;5025110;28;20147;-62
2024/01/15 13:10:18;;;;;;;18.38;13.82;;;;;;;;;;5030235;28;20304;-61
2024/01/15 13:12:43;;;;;;;17.48;13.82;;;;;;;;;;5025914;28;20084;-64
2024/01/15 13:15:11;;;;;;;18.35;14.20;;;;;;;;;;5029562;28;20603;-64
2024/01/15 13:17:41;;;;;;;18.60;13.50;;;;;;;;;;5028164;28;20109;-66
2024/01/15 13:20:10;;;;;;;16.80;13.32;;;;;;;;;;5027474;28;20041;-63
2024/01/15 13:22:38;;;;;;;16.45;13.25;;;;;;;;;;5013743;28;20065;-59
2024/01/15 13:25:05;;;;;;;17.85;13.68;;;;;;;;;;5030401;28;20051;-60
2024/01/15 13:27:30;;;;;;;19.77;14.10;;;;;;;;;;5015842;28;20041;-66
2024/01/15 13:30:00;;;;;;;16.98;13.05;;;;;;;;;;5027779;28;22030;-67
2024/01/15 13:32:28;;;;;;;19.33;13.90;;;;;;;;;;5024814;28;20041;-61
2024/01/15 13:34:54;;;;;;;17.20;13.32;;;;;;;;;;5011990;28;20094;-64
2024/01/15 13:37:19;;;;;;;17.85;14.02;;;;;;;;;;5030637;28;20041;-61
2024/01/15 13:39:44;;;;;;;17.42;13.48;;;;;;;;;;5023893;28;20030;-59
2024/01/15 13:42:15;;;;;;;17.02;13.88;;;;;;;;;;5024726;28;20044;-58
2024/01/15 13:44:41;;;;;;;16.45;13.23;;;;;;;;;;5007750;28;20102;-57
2024/01/15 13:47:10;;;;;;;16.52;12.55;;;;;;;;;;5024250;28;20498;-66
2024/01/15 13:49:36;;;;;;;17.45;13.43;;;;;;;;;;5023855;28;20037;-62
2024/01/15 13:52:03;;;;;;;17.40;13.45;;;;;;;;;;5006723;28;20076;-58
2024/01/15 13:54:29;;;;;;;16.73;13.02;;;;;;;;;;5025050;28;20045;-56
2024/01/15 13:56:55;;;;;;;16.98;13.40;;;;;;;;;;5025327;28;20041;-57
2024/01/15 13:59:20;;;;;;;17.20;12.82;;;;;;;;;;4999741;28;20088;-55
2024/01/15 14:01:48;;;;;;;16.40;12.73;;;;;;;;;;5022739;28;20756;-57
2024/01/15 14:04:14;;;;;;;17.23;13.50;;;;;;;;;;5025298;28;20037;-58
2024/01/15 14:06:39;;;;;;;15.95;12.82;;;;;;;;;;5020950;28;20064;-57
2024/01/15 14:09:05;;;;;;;17.85;12.75;;;;;;;;;;5010156;28;20129;-57
2024/01/15 14:11:32;;;;;;;16.13;12.82;;;;;;;;;;5027118;28;20532;-58
2024/01/15 14:13:58;;;;;;;16.10;12.57;;;;;;;;;;5037235;28;20080;-58